Time;durP1;ratioP1;P1;durP2;ratioP2;P2;SDS_P1;SDS_P2;PMS_P1;PMS_P2;Temp;Humidity;BMP_temperature;BMP_pressure;BME280_temperature;BME280_humidity;BME280_pressure;Samples;Min_cycle;Max_cycle;Signal;HPM_P1;HPM_P2
2022/04/16 00:01:42;;;;;;;1.95;0.70;;;3.20;99.90;;;;;;5049349;28;20033;-64
2022/04/16 00:04:10;;;;;;;2.72;0.30;;;3.20;99.90;;;;;;5037168;28;20045;-64
2022/04/16 00:06:37;;;;;;;3.25;0.50;;;3.20;99.90;;;;;;5039225;28;20073;-62
2022/04/16 00:09:04;;;;;;;1.27;0.50;;;3.20;99.90;;;;;;5038816;28;20048;-63
2022/04/16 00:11:31;;;;;;;1.63;0.60;;;3.20;99.90;;;;;;5050955;28;20083;-64
2022/04/16 00:13:58;;;;;;;0.65;0.43;;;3.20;99.90;;;;;;5043128;28;20212;-63
2022/04/16 00:16:26;;;;;;;1.27;0.45;;;3.20;99.90;;;;;;5035960;28;20038;-62
2022/04/16 00:18:56;;;;;;;0.73;0.38;;;3.20;99.90;;;;;;5038627;28;20056;-64
2022/04/16 00:21:26;;;;;;;3.17;0.80;;;3.20;99.90;;;;;;5047913;28;20045;-63
2022/04/16 00:23:53;;;;;;;1.05;0.50;;;3.20;99.90;;;;;;5032631;28;20083;-64
2022/04/16 00:26:21;;;;;;;0.45;0.30;;;3.20;99.90;;;;;;5037423;28;20132;-63
2022/04/16 00:28:51;;;;;;;1.95;0.47;;;3.20;99.90;;;;;;5031549;28;20052;-63
2022/04/16 00:31:18;;;;;;;1.08;0.73;;;3.10;99.90;;;;;;5035791;28;20069;-66
2022/04/16 00:33:46;;;;;;;3.72;1.58;;;3.20;99.90;;;;;;5037951;28;20048;-63
2022/04/16 00:36:14;;;;;;;0.50;0.40;;;3.20;99.90;;;;;;5041516;28;20113;-63
2022/04/16 00:38:42;;;;;;;0.68;0.30;;;3.20;99.90;;;;;;5026784;28;20136;-66
2022/04/16 00:41:12;;;;;;;1.67;0.43;;;3.10;99.90;;;;;;5032617;28;20057;-65
2022/04/16 00:43:39;;;;;;;0.85;0.22;;;3.20;99.90;;;;;;5036594;28;20044;-63
2022/04/16 00:46:06;;;;;;;1.70;0.40;;;3.20;99.90;;;;;;5041016;28;20049;-64
2022/04/16 00:48:33;;;;;;;2.42;0.57;;;3.20;99.90;;;;;;5036932;28;20045;-64
2022/04/16 00:51:00;;;;;;;1.52;0.63;;;3.10;99.90;;;;;;5040989;28;20084;-63
2022/04/16 00:53:27;;;;;;;1.17;0.28;;;3.20;99.90;;;;;;5041906;28;20434;-68
2022/04/16 00:55:56;;;;;;;0.80;0.40;;;3.20;99.90;;;;;;5047732;28;20421;-63
2022/04/16 00:58:23;;;;;;;4.10;0.93;;;3.20;99.90;;;;;;5044209;28;20149;-63
2022/04/16 01:00:50;;;;;;;3.20;0.68;;;3.20;99.90;;;;;;5045321;28;20064;-63
2022/04/16 01:03:18;;;;;;;0.55;0.55;;;3.20;99.90;;;;;;5043715;28;20047;-62
2022/04/16 01:05:45;;;;;;;2.17;0.47;;;3.10;99.90;;;;;;5047351;28;20049;-63
2022/04/16 01:08:12;;;;;;;0.82;0.30;;;3.10;99.90;;;;;;5047193;28;20064;-64
2022/04/16 01:10:39;;;;;;;1.45;0.50;;;3.20;99.90;;;;;;5036279;28;20053;-65
2022/04/16 01:13:07;;;;;;;0.93;0.28;;;3.20;99.90;;;;;;5042772;28;20072;-62
2022/04/16 01:15:34;;;;;;;1.95;0.40;;;3.20;99.90;;;;;;5047353;28;20040;-63
2022/04/16 01:18:04;;;;;;;1.85;0.57;;;3.20;99.90;;;;;;5047080;28;20113;-62
2022/04/16 01:20:41;;;;;;;0.20;0.20;;;3.20;99.90;;;;;;5035036;28;20061;-65
2022/04/16 01:23:08;;;;;;;0.95;0.28;;;3.10;99.90;;;;;;5049987;28;20869;-63
2022/04/16 01:25:36;;;;;;;0.63;0.35;;;3.10;99.90;;;;;;5042964;28;20144;-62
2022/04/16 01:28:04;;;;;;;0.43;0.40;;;3.10;99.90;;;;;;5044553;28;20057;-63
2022/04/16 01:30:32;;;;;;;2.10;0.45;;;3.10;99.90;;;;;;5043708;28;20045;-64
2022/04/16 01:32:59;;;;;;;2.88;0.55;;;3.10;99.90;;;;;;5043458;28;20148;-62
2022/04/16 01:35:26;;;;;;;2.05;0.43;;;3.10;99.90;;;;;;5020374;28;20045;-65
2022/04/16 01:37:52;;;;;;;1.40;0.60;;;3.10;99.90;;;;;;5044343;28;20450;-63
2022/04/16 01:40:25;;;;;;;0.68;0.47;;;3.10;99.90;;;;;;5039247;28;20037;-62
2022/04/16 01:42:56;;;;;;;1.80;0.45;;;3.10;99.90;;;;;;5037051;28;20765;-66
2022/04/16 01:45:23;;;;;;;1.77;0.38;;;3.10;99.90;;;;;;5028800;28;20033;-63
2022/04/16 01:47:51;;;;;;;1.08;0.40;;;3.10;99.90;;;;;;5034636;28;20032;-63
2022/04/16 01:50:19;;;;;;;2.70;0.93;;;3.00;99.90;;;;;;5025533;28;20103;-63
2022/04/16 01:52:47;;;;;;;0.85;0.38;;;3.00;99.90;;;;;;5025820;28;20064;-65
2022/04/16 01:55:14;;;;;;;1.90;0.63;;;3.00;99.90;;;;;;5035971;28;20045;-64
2022/04/16 01:57:42;;;;;;;3.65;0.70;;;3.00;99.90;;;;;;5040310;28;20045;-63
2022/04/16 02:00:12;;;;;;;2.13;0.43;;;3.00;99.90;;;;;;5032575;28;20146;-63
2022/04/16 02:02:40;;;;;;;3.08;0.63;;;3.00;99.90;;;;;;5030377;28;20068;-63
2022/04/16 02:05:08;;;;;;;1.10;0.40;;;3.00;99.90;;;;;;5027400;28;20379;-63
2022/04/16 02:07:35;;;;;;;1.33;0.73;;;2.90;99.90;;;;;;5042896;28;20059;-63
2022/04/16 02:10:03;;;;;;;0.50;0.45;;;2.90;99.90;;;;;;5030057;28;20111;-64
2022/04/16 02:12:30;;;;;;;0.90;0.40;;;2.90;99.90;;;;;;5035786;28;20067;-63
2022/04/16 02:14:57;;;;;;;4.18;0.60;;;2.90;99.90;;;;;;5033220;28;20037;-64
2022/04/16 02:17:24;;;;;;;2.83;0.57;;;2.90;99.90;;;;;;5033553;28;20111;-62
2022/04/16 02:19:51;;;;;;;2.03;0.90;;;2.90;99.90;;;;;;5037215;28;20048;-62
2022/04/16 02:22:18;;;;;;;0.52;0.52;;;2.90;99.90;;;;;;5045639;28;20044;-63
2022/04/16 02:24:46;;;;;;;3.85;0.98;;;2.90;99.90;;;;;;5037025;28;20124;-64
2022/04/16 02:27:14;;;;;;;2.67;0.52;;;2.90;99.90;;;;;;5043120;28;20041;-64
2022/04/16 02:29:43;;;;;;;0.82;0.50;;;2.90;99.90;;;;;;4997746;28;1079530;-64
2022/04/16 02:32:11;;;;;;;0.70;0.70;;;2.90;99.90;;;;;;5032528;28;20424;-67
2022/04/16 02:34:38;;;;;;;1.00;0.30;;;2.90;99.90;;;;;;5041218;28;20740;-63
2022/04/16 02:37:05;;;;;;;2.15;0.52;;;2.90;99.90;;;;;;5036880;28;20028;-62
2022/04/16 02:39:32;;;;;;;4.75;0.60;;;2.90;99.90;;;;;;5025808;28;20037;-63
2022/04/16 02:41:59;;;;;;;0.73;0.60;;;2.90;99.90;;;;;;5027100;28;20081;-62
2022/04/16 02:47:13;;;;;;;2.53;0.40;;;2.80;99.90;;;;;;5033913;28;20124;-62
2022/04/16 02:49:40;;;;;;;0.52;0.40;;;2.90;99.90;;;;;;5034524;28;20052;-63
2022/04/16 02:52:07;;;;;;;1.25;0.50;;;2.80;99.90;;;;;;5037624;28;20394;-62
2022/04/16 02:54:35;;;;;;;2.25;1.38;;;2.80;99.90;;;;;;5037415;28;20430;-62
2022/04/16 02:57:03;;;;;;;4.72;1.17;;;2.80;99.90;;;;;;5028366;28;20038;-62
2022/04/16 02:59:32;;;;;;;0.50;0.35;;;2.80;99.90;;;;;;5045153;28;20676;-66
2022/04/16 03:01:59;;;;;;;0.40;0.30;;;2.80;99.90;;;;;;5045578;28;20045;-62
2022/04/16 03:04:26;;;;;;;1.10;0.60;;;2.80;99.90;;;;;;5035709;28;20091;-64
2022/04/16 03:06:53;;;;;;;1.80;1.23;;;2.80;99.90;;;;;;5038740;28;20044;-66
2022/04/16 03:09:20;;;;;;;1.17;0.82;;;2.80;99.90;;;;;;5036767;28;20033;-63
2022/04/16 03:11:47;;;;;;;1.45;0.57;;;2.80;99.90;;;;;;5032732;28;20128;-63
2022/04/16 03:19:45;;;;;;;0.77;0.47;;;2.80;99.90;;;;;;5042451;28;20454;-64
2022/04/16 03:22:15;;;;;;;3.40;0.47;;;2.70;99.90;;;;;;5044820;28;20029;-63
2022/04/16 03:24:42;;;;;;;4.22;0.73;;;2.70;99.90;;;;;;5040132;28;20056;-64
2022/04/16 03:27:09;;;;;;;2.75;0.60;;;2.70;99.90;;;;;;5043613;28;20117;-64
2022/04/16 03:29:36;;;;;;;1.58;0.50;;;2.60;99.90;;;;;;5041480;28;20511;-63
2022/04/16 03:32:04;;;;;;;2.40;0.55;;;2.60;99.90;;;;;;5032126;28;20061;-63
2022/04/16 03:34:31;;;;;;;0.30;0.30;;;2.60;99.90;;;;;;5035637;28;20432;-66
2022/04/16 03:36:58;;;;;;;1.45;0.57;;;2.60;99.90;;;;;;5040795;28;20110;-63
2022/04/16 03:39:25;;;;;;;1.55;0.57;;;2.60;99.90;;;;;;5038759;28;20163;-64
2022/04/16 03:41:52;;;;;;;3.08;0.40;;;2.60;99.90;;;;;;5033262;28;20123;-63
2022/04/16 03:44:19;;;;;;;2.15;0.60;;;2.60;99.90;;;;;;5041592;28;20045;-63
2022/04/16 03:46:46;;;;;;;2.25;0.60;;;2.60;99.90;;;;;;5030823;28;20106;-63
2022/04/16 03:49:13;;;;;;;2.13;0.88;;;2.60;99.90;;;;;;5028663;28;20666;-64
2022/04/16 03:51:41;;;;;;;1.02;0.40;;;2.60;99.90;;;;;;5042552;28;20091;-63
2022/04/16 04:02:25;;;;;;;2.20;0.50;;;2.60;99.90;;;;;;5040496;28;20094;-63
2022/04/16 04:04:52;;;;;;;2.60;0.75;;;2.60;99.90;;;;;;5037998;28;20048;-64
2022/04/16 04:07:19;;;;;;;1.48;0.50;;;2.60;99.90;;;;;;5050437;28;20137;-63
2022/04/16 04:09:46;;;;;;;1.00;0.63;;;2.60;99.90;;;;;;5045417;28;20037;-64
2022/04/16 04:12:14;;;;;;;0.80;0.50;;;2.60;99.90;;;;;;5043027;28;20343;-62
2022/04/16 04:14:43;;;;;;;2.25;0.80;;;2.60;99.90;;;;;;5039747;28;20131;-63
2022/04/16 04:17:10;;;;;;;8.57;0.98;;;2.70;99.90;;;;;;5043152;28;20316;-63
2022/04/16 04:19:45;;;;;;;0.95;0.45;;;2.70;99.90;;;;;;5037668;28;20124;-62
2022/04/16 04:22:16;;;;;;;1.20;0.50;;;2.70;99.90;;;;;;5029721;28;20126;-62
2022/04/16 04:24:44;;;;;;;4.65;0.98;;;2.60;99.90;;;;;;5027464;28;20282;-67
2022/04/16 04:27:11;;;;;;;3.88;1.02;;;2.70;99.90;;;;;;5042463;28;20347;-64
2022/04/16 04:29:38;;;;;;;0.50;0.47;;;2.70;99.90;;;;;;5044975;28;20534;-63
2022/04/16 04:32:06;;;;;;;4.72;0.60;;;2.70;99.90;;;;;;5042092;28;20218;-65
2022/04/16 04:34:33;;;;;;;3.08;0.65;;;2.70;99.90;;;;;;5041105;28;20152;-63
2022/04/16 04:37:00;;;;;;;1.50;0.55;;;2.70;99.90;;;;;;5046010;28;20076;-62
2022/04/16 04:39:27;;;;;;;3.47;0.90;;;2.70;99.90;;;;;;5035757;28;20036;-66
2022/04/16 04:41:54;;;;;;;3.10;0.57;;;2.70;99.90;;;;;;5047103;28;20144;-63
2022/04/16 04:44:21;;;;;;;1.38;0.52;;;2.80;99.90;;;;;;5044579;28;20128;-63
2022/04/16 04:46:52;;;;;;;8.38;0.70;;;2.80;99.90;;;;;;5041337;28;20051;-62
2022/04/16 04:49:20;;;;;;;3.17;0.60;;;2.80;99.90;;;;;;5039178;28;20828;-64
2022/04/16 04:51:46;;;;;;;1.60;0.50;;;2.90;99.90;;;;;;5032299;28;20148;-62
2022/04/16 04:54:13;;;;;;;2.63;0.73;;;2.90;99.90;;;;;;5033479;28;20088;-63
2022/04/16 04:56:40;;;;;;;0.57;0.45;;;2.90;99.90;;;;;;5040572;28;20422;-63
2022/04/16 04:59:07;;;;;;;2.70;0.70;;;2.90;99.90;;;;;;5044158;28;20041;-63
2022/04/16 05:01:34;;;;;;;0.55;0.40;;;2.90;99.90;;;;;;5029205;28;20045;-64
2022/04/16 05:04:01;;;;;;;1.52;0.90;;;2.90;99.90;;;;;;5042111;28;20096;-64
2022/04/16 05:06:28;;;;;;;0.50;0.38;;;2.90;99.90;;;;;;5037375;28;20037;-66
2022/04/16 05:08:55;;;;;;;1.90;1.08;;;3.00;99.90;;;;;;5043709;28;20136;-64
2022/04/16 05:11:22;;;;;;;3.63;0.63;;;3.00;99.90;;;;;;5046301;28;20082;-64
2022/04/16 05:13:49;;;;;;;2.90;0.57;;;3.00;99.90;;;;;;5036867;28;20045;-63
2022/04/16 05:16:16;;;;;;;2.42;0.52;;;3.00;99.90;;;;;;5041278;28;20044;-64
2022/04/16 05:18:42;;;;;;;2.45;0.82;;;3.10;99.90;;;;;;5051376;28;20386;-63
2022/04/16 05:21:10;;;;;;;2.08;0.68;;;3.10;99.90;;;;;;5042119;28;20033;-63
2022/04/16 05:23:39;;;;;;;3.05;0.70;;;3.10;99.90;;;;;;5036762;28;20439;-63
2022/04/16 05:26:09;;;;;;;2.70;0.50;;;3.20;99.90;;;;;;5030215;28;20056;-64
2022/04/16 05:28:37;;;;;;;2.05;1.00;;;3.10;99.90;;;;;;5047838;28;20045;-62
2022/04/16 05:31:05;;;;;;;2.30;0.80;;;3.20;99.90;;;;;;5038376;28;20041;-63
2022/04/16 05:36:18;;;;;;;1.52;1.00;;;3.20;99.90;;;;;;5052876;28;20049;-63
2022/04/16 05:38:45;;;;;;;3.40;0.75;;;3.20;99.90;;;;;;5037225;28;20047;-63
2022/04/16 05:41:13;;;;;;;1.58;0.77;;;3.20;99.90;;;;;;5037103;28;20037;-63
2022/04/16 05:43:40;;;;;;;3.63;1.25;;;3.30;99.90;;;;;;5046059;28;20387;-63
2022/04/16 05:46:07;;;;;;;2.65;0.65;;;3.30;99.90;;;;;;5044041;28;20584;-63
2022/04/16 05:48:34;;;;;;;3.63;0.60;;;3.30;99.90;;;;;;5043110;28;20155;-63
2022/04/16 05:51:02;;;;;;;6.45;0.85;;;3.30;99.90;;;;;;5043088;28;20048;-63
2022/04/16 05:53:30;;;;;;;0.75;0.75;;;3.40;99.90;;;;;;5043013;28;20053;-62
2022/04/16 05:55:58;;;;;;;3.05;0.52;;;3.40;99.90;;;;;;5043780;28;20136;-63
2022/04/16 05:58:25;;;;;;;1.67;0.55;;;3.40;99.90;;;;;;5044604;28;20406;-65
2022/04/16 06:00:52;;;;;;;2.38;0.70;;;3.40;99.90;;;;;;5040635;28;20045;-63
2022/04/16 06:03:19;;;;;;;0.52;0.45;;;3.50;99.90;;;;;;5020413;28;20045;-63
2022/04/16 06:05:47;;;;;;;1.00;0.55;;;3.50;99.90;;;;;;5044302;28;20049;-63
2022/04/16 06:08:14;;;;;;;1.05;0.57;;;3.50;99.90;;;;;;5045201;28;20106;-63
2022/04/16 06:10:40;;;;;;;0.50;0.32;;;3.50;99.90;;;;;;5043451;28;20083;-63
2022/04/16 06:13:11;;;;;;;4.28;0.98;;;3.50;99.90;;;;;;5040101;28;20101;-62
2022/04/16 06:15:41;;;;;;;0.57;0.50;;;3.50;99.90;;;;;;5044075;28;20365;-65
2022/04/16 06:18:10;;;;;;;2.95;0.57;;;3.60;99.90;;;;;;5043447;28;20087;-62
2022/04/16 06:20:37;;;;;;;1.88;0.43;;;3.60;99.90;;;;;;5042529;28;20131;-62
2022/04/16 06:23:05;;;;;;;2.20;0.52;;;3.60;99.90;;;;;;5038800;28;20163;-66
2022/04/16 06:25:33;;;;;;;4.63;0.80;;;3.60;99.90;;;;;;5042094;28;20128;-63
2022/04/16 06:28:00;;;;;;;1.25;0.82;;;3.70;99.90;;;;;;5042969;28;20515;-62
2022/04/16 06:30:27;;;;;;;1.05;0.80;;;3.70;99.90;;;;;;5036462;28;20037;-62
2022/04/16 06:32:54;;;;;;;4.53;1.00;;;3.70;99.90;;;;;;5031408;28;20061;-64
2022/04/16 06:35:21;;;;;;;4.63;1.00;;;3.70;99.90;;;;;;5041337;28;20128;-63
2022/04/16 06:37:48;;;;;;;2.63;0.63;;;3.70;99.90;;;;;;5046055;28;20083;-63
2022/04/16 06:40:15;;;;;;;1.40;0.60;;;3.80;99.90;;;;;;5044856;28;20045;-65
2022/04/16 06:42:42;;;;;;;0.95;0.52;;;3.80;99.90;;;;;;5042829;28;20723;-63
2022/04/16 06:45:11;;;;;;;0.63;0.60;;;3.90;99.90;;;;;;5044266;28;20049;-63
2022/04/16 06:47:38;;;;;;;2.47;0.60;;;3.90;99.90;;;;;;5044466;28;20239;-65
2022/04/16 06:50:06;;;;;;;0.68;0.47;;;3.80;99.90;;;;;;5036919;28;20376;-62
2022/04/16 06:52:33;;;;;;;2.63;0.80;;;3.80;99.90;;;;;;5032736;28;20135;-63
2022/04/16 06:55:00;;;;;;;3.47;0.73;;;3.80;99.90;;;;;;5042461;28;20490;-66
2022/04/16 06:57:27;;;;;;;1.17;0.80;;;3.80;99.90;;;;;;5043807;28;20450;-62
2022/04/16 07:00:01;;;;;;;2.05;0.80;;;3.90;99.90;;;;;;5041195;28;20037;-62
2022/04/16 07:02:28;;;;;;;0.85;0.60;;;3.90;99.90;;;;;;5030241;28;20083;-62
2022/04/16 07:04:55;;;;;;;4.65;1.00;;;3.90;99.90;;;;;;5040372;28;20044;-63
2022/04/16 07:07:22;;;;;;;1.38;0.63;;;3.90;99.90;;;;;;5038560;28;20168;-62
2022/04/16 07:09:49;;;;;;;2.08;1.10;;;3.90;99.90;;;;;;5046691;28;20391;-62
2022/04/16 07:12:17;;;;;;;1.33;0.68;;;4.00;99.90;;;;;;5043818;28;20127;-64
2022/04/16 07:14:44;;;;;;;1.27;0.90;;;4.00;99.90;;;;;;5041589;28;20452;-63
2022/04/16 07:17:18;;;;;;;1.23;0.52;;;4.10;99.90;;;;;;5036934;28;20084;-63
2022/04/16 07:19:45;;;;;;;3.45;1.35;;;4.00;99.90;;;;;;5039361;28;20063;-63
2022/04/16 07:22:12;;;;;;;1.27;0.82;;;4.00;99.90;;;;;;5051248;28;20068;-63
2022/04/16 07:24:42;;;;;;;4.78;0.73;;;4.00;99.90;;;;;;5045247;28;20040;-64
2022/04/16 07:27:09;;;;;;;4.68;1.02;;;4.10;99.90;;;;;;5037400;28;20123;-64
2022/04/16 07:29:36;;;;;;;3.75;0.95;;;4.00;99.90;;;;;;5030317;28;20061;-64
2022/04/16 07:32:04;;;;;;;3.92;0.70;;;4.10;99.90;;;;;;5032506;28;20057;-63
2022/04/16 07:34:31;;;;;;;3.10;0.60;;;4.20;99.90;;;;;;5038436;28;20036;-64
2022/04/16 07:36:58;;;;;;;0.68;0.55;;;4.30;99.90;;;;;;5035716;28;24116;-64
2022/04/16 07:39:25;;;;;;;2.40;0.43;;;4.20;99.90;;;;;;5040521;28;20553;-63
2022/04/16 07:41:52;;;;;;;1.20;0.68;;;4.20;99.90;;;;;;5041156;28;20769;-63
2022/04/16 07:44:19;;;;;;;1.10;0.40;;;4.10;99.90;;;;;;5040674;28;20114;-65
2022/04/16 07:46:46;;;;;;;2.70;0.80;;;4.20;99.90;;;;;;5036855;28;20132;-64
2022/04/16 07:49:13;;;;;;;1.75;0.93;;;4.30;99.90;;;;;;5039745;28;20049;-62
2022/04/16 07:51:42;;;;;;;3.88;1.45;;;4.20;99.90;;;;;;5033426;28;20049;-63
2022/04/16 07:54:09;;;;;;;2.78;0.70;;;4.10;99.90;;;;;;5035025;28;20045;-64
2022/04/16 07:56:36;;;;;;;1.70;0.80;;;4.20;99.90;;;;;;5038594;28;20398;-63
2022/04/16 07:59:03;;;;;;;1.27;0.60;;;4.10;99.90;;;;;;5031812;28;20095;-64
2022/04/16 08:01:30;;;;;;;3.47;0.65;;;4.10;99.90;;;;;;5043665;28;20081;-63
2022/04/16 08:03:57;;;;;;;2.92;0.98;;;4.20;99.90;;;;;;5025337;28;20088;-62
2022/04/16 08:06:24;;;;;;;2.33;0.70;;;4.30;99.90;;;;;;5027457;28;20140;-63
2022/04/16 08:08:52;;;;;;;3.35;0.65;;;4.30;99.90;;;;;;5028012;28;20075;-63
2022/04/16 08:11:19;;;;;;;1.77;0.77;;;4.40;99.90;;;;;;5036320;28;20036;-63
2022/04/16 08:13:46;;;;;;;6.82;0.80;;;4.40;99.90;;;;;;5031700;28;20048;-64
2022/04/16 08:16:13;;;;;;;1.65;0.82;;;4.50;99.90;;;;;;5034761;28;20049;-63
2022/04/16 08:18:40;;;;;;;5.72;2.35;;;4.50;99.90;;;;;;5034505;28;20052;-63
2022/04/16 08:21:07;;;;;;;1.35;0.85;;;4.60;99.90;;;;;;5037021;28;20231;-63
2022/04/16 08:23:40;;;;;;;2.45;0.60;;;4.60;99.90;;;;;;5036492;28;20136;-63
2022/04/16 08:26:07;;;;;;;2.30;1.17;;;4.70;99.90;;;;;;5040326;28;20111;-65
2022/04/16 08:28:34;;;;;;;0.98;0.70;;;4.60;99.90;;;;;;5042528;28;20076;-65
2022/04/16 08:31:01;;;;;;;1.15;0.60;;;4.50;99.90;;;;;;5036041;28;20473;-63
2022/04/16 08:33:28;;;;;;;1.00;0.55;;;4.60;99.90;;;;;;5044183;28;20106;-63
2022/04/16 08:35:55;;;;;;;1.98;0.68;;;4.70;99.90;;;;;;5041356;28;20095;-65
2022/04/16 08:38:22;;;;;;;3.30;0.30;;;4.70;99.90;;;;;;5051188;28;20037;-62
2022/04/16 08:40:50;;;;;;;3.40;0.82;;;4.60;99.90;;;;;;5042619;28;20071;-63
2022/04/16 08:43:18;;;;;;;1.02;0.70;;;4.60;99.90;;;;;;5044027;28;20478;-64
2022/04/16 08:45:48;;;;;;;1.20;0.80;;;4.60;99.90;;;;;;5046712;28;20963;-63
2022/04/16 08:48:15;;;;;;;0.75;0.57;;;4.70;99.90;;;;;;5047524;28;20057;-63
2022/04/16 08:50:47;;;;;;;3.35;1.25;;;4.80;99.90;;;;;;5042781;28;20049;-65
2022/04/16 08:53:15;;;;;;;0.38;0.32;;;4.80;99.90;;;;;;5046580;28;20452;-63
2022/04/16 08:55:42;;;;;;;2.40;0.98;;;4.80;99.90;;;;;;5047991;28;20049;-62
2022/04/16 08:58:09;;;;;;;3.97;0.50;;;4.70;99.90;;;;;;5047286;28;20121;-62
2022/04/16 09:00:36;;;;;;;1.58;0.75;;;4.60;99.90;;;;;;5045371;28;20155;-63
2022/04/16 09:03:05;;;;;;;3.17;1.90;;;4.70;99.90;;;;;;5033636;28;20041;-62
2022/04/16 09:05:32;;;;;;;1.48;0.70;;;4.80;99.90;;;;;;5041323;28;21044;-63
2022/04/16 09:08:00;;;;;;;1.55;0.50;;;4.80;99.90;;;;;;5052957;28;20053;-63
2022/04/16 09:10:29;;;;;;;3.45;1.50;;;4.80;99.90;;;;;;5038611;28;20045;-64
2022/04/16 09:12:58;;;;;;;4.32;0.80;;;4.80;99.90;;;;;;5038505;28;20164;-63
2022/04/16 09:15:26;;;;;;;1.50;0.47;;;4.80;99.90;;;;;;5042023;28;20033;-63
2022/04/16 09:18:02;;;;;;;1.05;0.65;;;4.80;99.90;;;;;;5044877;28;20136;-62
2022/04/16 09:20:39;;;;;;;1.67;0.90;;;4.80;99.90;;;;;;5041705;28;20436;-63
2022/04/16 09:23:22;;;;;;;4.40;0.70;;;4.80;99.90;;;;;;5040889;28;20053;-63
2022/04/16 09:25:50;;;;;;;3.92;2.22;;;4.90;99.90;;;;;;5026791;28;20165;-63
2022/04/16 09:28:18;;;;;;;2.78;1.35;;;5.00;99.90;;;;;;5045295;28;20534;-62
2022/04/16 09:31:08;;;;;;;0.52;0.45;;;4.80;99.90;;;;;;5034479;28;20563;-63
2022/04/16 09:33:39;;;;;;;2.57;1.20;;;4.80;99.90;;;;;;5033689;28;20041;-63
2022/04/16 09:36:06;;;;;;;1.23;0.40;;;4.80;99.90;;;;;;5043583;28;20290;-66
2022/04/16 09:38:37;;;;;;;1.40;1.05;;;4.90;99.90;;;;;;5040459;28;20061;-63
2022/04/16 09:41:08;;;;;;;0.90;0.82;;;4.90;99.90;;;;;;5031779;28;20071;-65
2022/04/16 09:43:36;;;;;;;2.60;1.00;;;4.80;99.90;;;;;;5041697;28;20037;-62
2022/04/16 09:46:12;;;;;;;2.70;0.70;;;4.90;99.90;;;;;;5046241;28;20072;-63
2022/04/16 09:48:40;;;;;;;3.10;0.88;;;5.00;99.90;;;;;;5040867;28;20143;-63
2022/04/16 09:51:07;;;;;;;2.10;0.90;;;5.10;99.90;;;;;;5040951;28;20063;-63
2022/04/16 09:53:37;;;;;;;0.68;0.63;;;5.10;99.90;;;;;;5042418;28;20444;-63
2022/04/16 09:56:10;;;;;;;2.15;0.50;;;5.10;99.90;;;;;;5043624;28;20076;-66
2022/04/16 09:58:41;;;;;;;0.82;0.50;;;4.90;99.90;;;;;;5042875;28;20135;-69
2022/04/16 10:01:10;;;;;;;1.80;0.90;;;4.90;99.90;;;;;;5039739;28;20120;-64
2022/04/16 10:03:38;;;;;;;3.60;0.60;;;4.90;99.90;;;;;;5036439;28;20107;-64
2022/04/16 10:06:07;;;;;;;0.70;0.68;;;5.00;99.90;;;;;;5043143;28;20111;-63
2022/04/16 10:08:35;;;;;;;1.13;0.90;;;5.10;99.90;;;;;;5042784;28;20179;-63
2022/04/16 10:11:03;;;;;;;2.40;0.85;;;5.20;99.90;;;;;;5038703;28;20049;-63
2022/04/16 10:13:38;;;;;;;0.73;0.73;;;5.20;99.90;;;;;;5049144;28;20167;-63
2022/04/16 10:16:34;;;;;;;2.08;0.93;;;5.30;99.90;;;;;;5039547;28;20111;-64
2022/04/16 10:19:02;;;;;;;1.33;0.82;;;5.40;99.90;;;;;;5040661;28;20037;-63
2022/04/16 10:21:33;;;;;;;1.95;0.80;;;5.50;99.90;;;;;;5044873;28;20518;-63
2022/04/16 10:24:01;;;;;;;2.17;0.90;;;5.40;99.90;;;;;;5039877;28;20045;-64
2022/04/16 10:26:42;;;;;;;5.43;2.05;;;5.20;99.90;;;;;;5037491;28;20052;-63
2022/04/16 10:29:19;;;;;;;1.33;0.80;;;5.40;99.90;;;;;;5041142;28;20072;-63
2022/04/16 10:31:52;;;;;;;0.70;0.70;;;5.40;99.90;;;;;;5043735;28;20087;-63
2022/04/16 10:34:30;;;;;;;2.13;0.50;;;5.40;99.90;;;;;;5043370;28;20044;-63
2022/04/16 10:36:57;;;;;;;1.55;0.63;;;5.30;99.90;;;;;;5032302;28;20045;-63
2022/04/16 10:39:28;;;;;;;2.58;0.90;;;5.40;99.90;;;;;;5043314;28;20053;-63
2022/04/16 10:42:01;;;;;;;0.85;0.70;;;5.60;99.90;;;;;;5044097;28;20045;-63
2022/04/16 10:44:30;;;;;;;1.92;0.90;;;5.70;99.90;;;;;;5044304;28;20444;-63
2022/04/16 10:46:59;;;;;;;1.33;0.70;;;5.80;99.90;;;;;;5038895;28;20458;-62
2022/04/16 10:49:27;;;;;;;3.15;0.90;;;5.70;99.90;;;;;;5037227;28;20118;-63
2022/04/16 10:51:55;;;;;;;1.20;0.80;;;5.40;99.90;;;;;;5045462;28;20356;-63
2022/04/16 10:54:34;;;;;;;0.90;0.90;;;5.50;99.90;;;;;;5044764;28;20120;-65
2022/04/16 10:57:03;;;;;;;1.98;0.60;;;5.40;99.90;;;;;;5035224;28;20128;-62
2022/04/16 10:59:37;;;;;;;1.73;0.70;;;5.40;99.90;;;;;;5043729;28;20040;-63
2022/04/16 11:02:37;;;;;;;2.50;0.88;;;5.40;99.90;;;;;;5027210;28;20057;-64
2022/04/16 11:05:07;;;;;;;1.00;0.75;;;5.30;99.90;;;;;;5002342;28;20132;-63
2022/04/16 11:07:36;;;;;;;0.70;0.65;;;5.50;99.90;;;;;;5040422;28;20542;-63
2022/04/16 11:10:08;;;;;;;3.03;0.43;;;5.70;99.90;;;;;;5042698;28;20068;-64
2022/04/16 11:12:40;;;;;;;2.47;0.63;;;6.00;99.90;;;;;;5031553;28;20045;-64
2022/04/16 11:15:14;;;;;;;0.55;0.55;;;6.10;99.90;;;;;;5049885;28;20037;-63
2022/04/16 11:17:41;;;;;;;2.35;1.05;;;6.00;99.90;;;;;;5026885;28;20519;-63
2022/04/16 11:20:08;;;;;;;0.82;0.77;;;5.90;99.90;;;;;;5042608;28;20812;-64
2022/04/16 11:22:38;;;;;;;0.73;0.50;;;6.00;99.90;;;;;;5039592;28;20621;-63
2022/04/16 11:25:06;;;;;;;2.30;0.95;;;6.10;99.90;;;;;;5031947;28;20510;-64
2022/04/16 11:36:05;;;;;;;1.63;0.68;;;5.70;99.90;;;;;;5042134;28;20049;-63
2022/04/16 11:38:35;;;;;;;4.20;0.75;;;5.70;99.90;;;;;;5045197;28;20060;-63
2022/04/16 11:41:06;;;;;;;3.13;0.57;;;5.60;99.90;;;;;;5046898;28;20132;-64
2022/04/16 11:43:33;;;;;;;0.52;0.45;;;5.50;99.90;;;;;;5045103;28;20081;-66
2022/04/16 11:46:02;;;;;;;2.20;0.65;;;5.70;99.90;;;;;;5043971;28;20131;-62
2022/04/16 11:48:31;;;;;;;3.20;0.70;;;5.70;99.90;;;;;;5044022;28;20629;-63
2022/04/16 11:50:58;;;;;;;6.40;1.30;;;5.90;99.90;;;;;;5047022;28;20033;-63
2022/04/16 11:53:25;;;;;;;2.45;0.73;;;5.90;99.90;;;;;;5044853;28;20148;-63
2022/04/16 11:56:00;;;;;;;2.53;0.52;;;6.00;99.90;;;;;;5035390;28;20045;-62
2022/04/16 11:58:29;;;;;;;0.60;0.50;;;6.00;99.90;;;;;;5039110;28;20041;-63
2022/04/16 12:00:57;;;;;;;1.20;0.75;;;6.20;99.90;;;;;;5028488;28;20122;-65
2022/04/16 12:03:40;;;;;;;4.00;0.63;;;6.50;99.90;;;;;;5037162;28;20037;-63
2022/04/16 12:06:11;;;;;;;1.83;0.60;;;6.60;99.90;;;;;;5035830;28;20079;-62
2022/04/16 12:08:45;;;;;;;0.70;0.70;;;6.60;99.90;;;;;;5039306;28;20044;-62
2022/04/16 12:11:16;;;;;;;3.05;0.70;;;6.30;99.90;;;;;;5039365;28;20068;-63
2022/04/16 12:13:43;;;;;;;0.43;0.43;;;6.40;99.90;;;;;;5041096;28;20132;-63
2022/04/16 12:16:15;;;;;;;0.65;0.65;;;6.50;99.90;;;;;;5043555;28;20116;-63
2022/04/16 12:18:43;;;;;;;0.47;0.40;;;6.60;99.90;;;;;;5041921;28;20131;-62
2022/04/16 12:21:12;;;;;;;0.85;0.85;;;6.60;99.90;;;;;;5050007;28;20123;-63
2022/04/16 12:23:40;;;;;;;2.35;0.45;;;6.40;99.90;;;;;;5048363;28;20057;-65
2022/04/16 12:26:09;;;;;;;2.40;0.70;;;6.40;99.90;;;;;;5041855;28;20110;-64
2022/04/16 12:28:57;;;;;;;0.77;0.57;;;6.40;99.90;;;;;;5046885;28;20058;-64
2022/04/16 12:31:30;;;;;;;0.80;0.80;;;6.30;99.90;;;;;;5037381;28;20463;-65
2022/04/16 12:33:57;;;;;;;0.32;0.32;;;6.40;99.90;;;;;;5038859;28;20104;-63
2022/04/16 12:36:25;;;;;;;0.80;0.43;;;6.30;99.90;;;;;;5046389;28;20045;-63
2022/04/16 12:38:54;;;;;;;1.83;0.80;;;6.10;99.90;;;;;;5046240;28;20037;-63
2022/04/16 12:41:21;;;;;;;1.45;1.00;;;5.70;99.90;;;;;;5046968;28;20057;-64
2022/04/16 12:43:48;;;;;;;0.55;0.47;;;5.90;99.90;;;;;;5046096;28;20128;-64
2022/04/16 12:46:15;;;;;;;1.38;0.75;;;5.80;99.90;;;;;;5041199;28;20095;-65
2022/04/16 12:48:42;;;;;;;2.83;0.55;;;5.90;99.90;;;;;;5045675;28;20072;-64
2022/04/16 12:51:11;;;;;;;0.60;0.60;;;6.00;99.90;;;;;;5041342;28;20116;-64
2022/04/16 12:53:38;;;;;;;0.93;0.50;;;6.10;99.90;;;;;;5043887;28;20114;-63
2022/04/16 12:56:04;;;;;;;0.70;0.70;;;6.10;99.90;;;;;;5047200;28;20506;-63
2022/04/16 12:58:31;;;;;;;1.60;1.50;;;5.80;99.90;;;;;;5060783;28;20140;-62
2022/04/16 13:01:00;;;;;;;9.43;0.70;;;5.90;99.90;;;;;;5040687;28;20107;-63
2022/04/16 13:03:28;;;;;;;1.00;0.82;;;6.00;99.90;;;;;;5050044;28;20116;-63
2022/04/16 13:05:55;;;;;;;2.25;0.60;;;6.20;99.90;;;;;;5041396;28;20049;-63
2022/04/16 13:08:24;;;;;;;3.75;2.13;;;6.30;99.90;;;;;;5047306;28;20418;-62
2022/04/16 13:10:51;;;;;;;1.08;0.80;;;5.90;99.90;;;;;;5046079;28;20080;-62
2022/04/16 13:13:18;;;;;;;3.13;0.75;;;5.90;99.90;;;;;;5044017;28;20124;-62
2022/04/16 13:15:46;;;;;;;1.42;0.65;;;6.10;99.90;;;;;;5038000;28;20048;-64
2022/04/16 13:18:13;;;;;;;2.53;0.88;;;6.40;99.90;;;;;;5036405;28;20049;-62
2022/04/16 13:20:40;;;;;;;2.33;0.80;;;6.70;99.90;;;;;;5037190;28;20155;-63
2022/04/16 13:23:07;;;;;;;0.50;0.50;;;6.80;99.90;;;;;;5038957;28;20099;-62
2022/04/16 13:25:34;;;;;;;1.63;0.80;;;6.50;99.90;;;;;;5037016;28;20466;-63
2022/04/16 13:28:02;;;;;;;0.50;0.50;;;6.40;99.90;;;;;;5042986;28;20138;-63
2022/04/16 13:30:29;;;;;;;0.98;0.88;;;6.40;99.90;;;;;;5043770;28;20784;-62
2022/04/16 13:32:56;;;;;;;3.30;0.90;;;6.20;99.90;;;;;;5042825;28;20897;-64